Date,TemperatureHighF,TemperatureAvgF,TemperatureLowF,DewpointHighF,DewpointAvgF,DewpointLowF,HumidityHigh,HumidityAvg,HumidityLow,PressureMaxIn,PressureMinIn,WindSpeedMaxMPH,WindSpeedAvgMPH,GustSpeedMaxMPH,PrecipitationSumIn
2012-12-1,48.4,37.9,31.6,40.3,33.5,27.3,100,85,62,30.00,29.71,11,5,16,0.00
2012-12-2,51.3,35.9,22.8,38.3,27.1,20.3,100,73,38,29.97,29.74,10,4,18,0.00
2012-12-3,55.6,45.7,33.3,53.4,36.8,19.4,100,74,42,29.94,29.56,12,7,23,0.00
2012-12-4,37.4,26.6,15.3,19.8,9.8,-1.3,71,50,33,30.36,29.94,5,3,13,0.00
2012-12-5,42.6,28.4,13.6,19.4,8.7,0.9,64,45,32,30.39,29.79,16,9,26,0.00
2012-12-6,47.5,38.9,21.0,33.1,20.3,7.7,74,48,34,30.00,29.76,14,6,26,0.00
2012-12-7,29.8,23.9,17.1,27.3,18.3,7.0,100,80,56,30.06,30.00,7,2,13,0.00
2012-12-8,29.7,24.7,15.1,26.4,22.2,13.1,100,90,76,30.03,29.94,8,3,13,0.00
2012-12-9,32.9,28.8,15.4,32.9,28.1,11.5,100,97,80,29.97,29.79,7,4,13,0.00
2012-12-10,15.3,2.2,-9.4,11.1,-2.2,-13.5,83,81,81,29.97,29.79,0,0,0,0.00
2012-12-11,19.0,9.3,1.0,9.3,1.7,-7.6,81,71,60,29.97,29.76,0,0,0,0.00
2012-12-12,36.7,25.5,4.1,19.2,11.6,-6.7,89,57,41,29.97,29.79,8,3,15,0.00
2012-12-13,36.0,24.4,11.7,16.5,8.6,1.9,69,51,42,30.12,29.88,6,3,10,0.00
2012-12-14,36.5,26.0,10.2,27.1,16.0,1.8,82,66,50,30.09,29.74,8,4,12,0.00
2012-12-15,36.9,34.8,32.7,35.8,31.5,24.8,100,88,64,29.74,29.50,7,3,11,0.00
2012-12-16,33.3,22.6,18.9,33.3,19.6,13.1,100,88,78,29.79,29.56,3,0,6,0.00
2012-12-17,23.5,21.4,19.2,19.2,16.9,14.7,92,83,75,29.79,29.68,0,0,0,0.00
2012-12-18,28.8,25.1,23.4,28.0,20.9,17.4,97,84,70,29.79,29.62,0,0,0,0.00
2012-12-19,29.1,24.2,15.6,28.0,18.5,13.5,96,79,58,30.00,29.82,0,0,0,0.00
2012-12-20,25.5,18.6,7.7,15.1,8.5,-2.9,77,65,46,30.06,29.88,0,0,0,0.00
2012-12-21,15.4,5.3,0.0,3.0,-8.0,-15.2,61,54,44,30.27,30.06,0,0,0,0.00
2012-12-22,27.1,13.4,3.2,7.7,-3.8,-13.4,55,45,43,30.15,29.94,0,0,0,0.00
2012-12-23,17.4,13.1,8.2,10.9,1.4,-4.0,80,60,45,30.12,29.97,0,0,0,0.00
2012-12-24,17.6,10.8,-1.8,4.6,-5.0,-19.3,63,48,39,30.27,29.97,0,0,0,0.00
2012-12-25,10.8,-1.5,-10.1,-7.8,-18.9,-26.9,42,42,42,30.44,30.27,0,0,0,0.00
2012-12-26,7.0,3.4,-3.5,-11.2,-14.4,-20.7,42,42,42,30.39,30.30,0,0,0,0.00
2012-12-27,18.7,12.9,1.9,12.7,-0.1,-15.9,78,56,42,30.21,30.12,0,0,0,0.00
2012-12-28,24.6,16.9,7.0,14.2,8.8,-5.4,82,70,55,30.12,29.97,1,0,5,0.00
2012-12-29,12.7,7.3,-4.0,4.8,-0.4,-11.2,70,70,70,30.15,30.00,7,3,13,0.00
2012-12-30,25.2,8.8,-4.7,10.2,-0.5,-11.9,70,66,51,30.15,29.88,7,2,10,0.00
2012-12-31,14.5,5.3,-10.5,5.5,-8.0,-29.6,69,55,37,30.24,29.97,5,2,11,0.00